Paul, Alabama
Current Conditions -  °F | °C
As of 1:53 PM on Friday 24 Oct 2014 (Local Time) from KGZH Reporting Station
Clear Clear  
Wind Chill: 79°   Ceiling: Unl
Heat Index: 79°   Visibility: 10mi
Dew Point: 40°   Wind: 9mph
Humidity: 25%   Direction: 360°N
Pressure: 30.02"   Gusts: NA
Location:  31.32°N, 86.7439°W
Report Text: KGZH 241853Z AUTO 36008KT 330V040 10SM CLR 26/04 A3002 RMK AO2 SLP163 T02610044
Loading
Personal Weather Stations






























Interactive Weather Map
Tropical Storm Tracking
New forecast layout! Learn more

10-Day Weather Forecast

Advertisements
Track Severe Weather on mobile